sensor_id;sensor_type;location;lat;lon;timestamp;P1;durP1;ratioP1;P2;durP2;ratioP2
23628;SDS011;11991;57.150;-2.134;2022-12-10T00:01:36;2.40;;;1.00;;
23628;SDS011;11991;57.150;-2.134;2022-12-10T00:04:04;2.90;;;1.10;;
23628;SDS011;11991;57.150;-2.134;2022-12-10T00:06:32;1.33;;;0.97;;
23628;SDS011;11991;57.150;-2.134;2022-12-10T00:09:02;1.47;;;1.00;;
23628;SDS011;11991;57.150;-2.134;2022-12-10T00:11:31;1.07;;;0.80;;
23628;SDS011;11991;57.150;-2.134;2022-12-10T00:13:58;2.93;;;1.10;;
23628;SDS011;11991;57.150;-2.134;2022-12-10T00:16:27;1.00;;;0.80;;
23628;SDS011;11991;57.150;-2.134;2022-12-10T00:18:57;1.30;;;0.70;;
23628;SDS011;11991;57.150;-2.134;2022-12-10T00:21:26;1.70;;;0.80;;
23628;SDS011;11991;57.150;-2.134;2022-12-10T00:23:55;2.47;;;1.07;;
23628;SDS011;11991;57.150;-2.134;2022-12-10T00:26:24;1.97;;;0.90;;
23628;SDS011;11991;57.150;-2.134;2022-12-10T00:28:54;1.07;;;0.90;;
23628;SDS011;11991;57.150;-2.134;2022-12-10T00:31:23;0.87;;;0.77;;
23628;SDS011;11991;57.150;-2.134;2022-12-10T00:33:54;2.00;;;0.80;;
23628;SDS011;11991;57.150;-2.134;2022-12-10T00:36:27;1.27;;;0.73;;
23628;SDS011;11991;57.150;-2.134;2022-12-10T00:38:57;1.00;;;0.80;;
23628;SDS011;11991;57.150;-2.134;2022-12-10T00:41:27;1.43;;;0.70;;
23628;SDS011;11991;57.150;-2.134;2022-12-10T00:43:54;2.77;;;0.80;;
23628;SDS011;11991;57.150;-2.134;2022-12-10T00:46:22;0.90;;;0.70;;
23628;SDS011;11991;57.150;-2.134;2022-12-10T00:48:49;2.60;;;0.90;;
23628;SDS011;11991;57.150;-2.134;2022-12-10T00:51:21;1.87;;;0.83;;
23628;SDS011;11991;57.150;-2.134;2022-12-10T00:53:52;1.57;;;1.00;;
23628;SDS011;11991;57.150;-2.134;2022-12-10T00:56:24;2.43;;;1.30;;
23628;SDS011;11991;57.150;-2.134;2022-12-10T00:58:53;2.67;;;1.20;;
23628;SDS011;11991;57.150;-2.134;2022-12-10T01:01:32;1.23;;;0.80;;
23628;SDS011;11991;57.150;-2.134;2022-12-10T01:04:08;2.07;;;1.27;;
23628;SDS011;11991;57.150;-2.134;2022-12-10T01:06:46;2.20;;;0.90;;
23628;SDS011;11991;57.150;-2.134;2022-12-10T01:09:23;2.20;;;0.80;;
23628;SDS011;11991;57.150;-2.134;2022-12-10T01:11:53;1.30;;;0.77;;
23628;SDS011;11991;57.150;-2.134;2022-12-10T01:14:23;3.93;;;1.10;;
23628;SDS011;11991;57.150;-2.134;2022-12-10T01:16:56;3.40;;;0.93;;
23628;SDS011;11991;57.150;-2.134;2022-12-10T01:19:25;1.80;;;0.67;;
23628;SDS011;11991;57.150;-2.134;2022-12-10T01:21:53;1.63;;;0.73;;
23628;SDS011;11991;57.150;-2.134;2022-12-10T01:24:22;2.17;;;0.60;;
23628;SDS011;11991;57.150;-2.134;2022-12-10T01:26:51;1.57;;;0.80;;
23628;SDS011;11991;57.150;-2.134;2022-12-10T01:29:19;1.90;;;0.80;;
23628;SDS011;11991;57.150;-2.134;2022-12-10T01:31:49;0.87;;;0.70;;
23628;SDS011;11991;57.150;-2.134;2022-12-10T01:34:18;1.53;;;0.80;;
23628;SDS011;11991;57.150;-2.134;2022-12-10T01:36:48;1.40;;;0.70;;
23628;SDS011;11991;57.150;-2.134;2022-12-10T01:39:19;1.00;;;0.80;;
23628;SDS011;11991;57.150;-2.134;2022-12-10T01:46:50;1.13;;;0.50;;
23628;SDS011;11991;57.150;-2.134;2022-12-10T01:49:23;0.73;;;0.57;;
23628;SDS011;11991;57.150;-2.134;2022-12-10T01:51:54;1.20;;;0.70;;
23628;SDS011;11991;57.150;-2.134;2022-12-10T01:54:24;1.17;;;0.63;;
23628;SDS011;11991;57.150;-2.134;2022-12-10T01:57:15;2.80;;;1.03;;
23628;SDS011;11991;57.150;-2.134;2022-12-10T02:00:03;0.47;;;0.40;;
23628;SDS011;11991;57.150;-2.134;2022-12-10T02:02:46;0.93;;;0.60;;
23628;SDS011;11991;57.150;-2.134;2022-12-10T02:08:50;0.60;;;0.60;;
23628;SDS011;11991;57.150;-2.134;2022-12-10T02:13:45;4.90;;;1.30;;
23628;SDS011;11991;57.150;-2.134;2022-12-10T02:16:33;0.93;;;0.60;;
23628;SDS011;11991;57.150;-2.134;2022-12-10T02:22:03;0.50;;;0.50;;
23628;SDS011;11991;57.150;-2.134;2022-12-10T02:24:33;0.50;;;0.50;;
23628;SDS011;11991;57.150;-2.134;2022-12-10T02:29:46;1.63;;;0.70;;
23628;SDS011;11991;57.150;-2.134;2022-12-10T02:32:16;1.37;;;0.70;;
23628;SDS011;11991;57.150;-2.134;2022-12-10T02:34:50;2.73;;;0.80;;
23628;SDS011;11991;57.150;-2.134;2022-12-10T02:37:31;2.03;;;0.80;;
23628;SDS011;11991;57.150;-2.134;2022-12-10T02:40:11;4.17;;;0.90;;
23628;SDS011;11991;57.150;-2.134;2022-12-10T02:42:47;1.80;;;1.00;;
23628;SDS011;11991;57.150;-2.134;2022-12-10T02:45:20;1.03;;;0.80;;
23628;SDS011;11991;57.150;-2.134;2022-12-10T02:47:50;1.33;;;0.70;;
23628;SDS011;11991;57.150;-2.134;2022-12-10T02:50:21;1.77;;;1.20;;
23628;SDS011;11991;57.150;-2.134;2022-12-10T02:52:49;1.73;;;0.60;;
23628;SDS011;11991;57.150;-2.134;2022-12-10T02:55:17;3.67;;;1.00;;
23628;SDS011;11991;57.150;-2.134;2022-12-10T03:00:45;2.77;;;0.70;;
23628;SDS011;11991;57.150;-2.134;2022-12-10T03:03:31;3.80;;;1.20;;
23628;SDS011;11991;57.150;-2.134;2022-12-10T03:09:06;2.23;;;0.70;;
23628;SDS011;11991;57.150;-2.134;2022-12-10T03:11:43;2.50;;;1.20;;
23628;SDS011;11991;57.150;-2.134;2022-12-10T03:14:21;2.17;;;0.70;;
23628;SDS011;11991;57.150;-2.134;2022-12-10T03:16:59;1.17;;;0.73;;
23628;SDS011;11991;57.150;-2.134;2022-12-10T03:19:33;3.30;;;0.80;;
23628;SDS011;11991;57.150;-2.134;2022-12-10T03:22:09;0.70;;;0.57;;
23628;SDS011;11991;57.150;-2.134;2022-12-10T03:24:39;1.70;;;0.70;;
23628;SDS011;11991;57.150;-2.134;2022-12-10T03:27:08;1.07;;;0.70;;
23628;SDS011;11991;57.150;-2.134;2022-12-10T03:29:39;2.27;;;0.80;;
23628;SDS011;11991;57.150;-2.134;2022-12-10T03:32:16;1.63;;;0.83;;
23628;SDS011;11991;57.150;-2.134;2022-12-10T03:34:46;1.27;;;0.70;;
23628;SDS011;11991;57.150;-2.134;2022-12-10T03:37:14;1.13;;;0.70;;
23628;SDS011;11991;57.150;-2.134;2022-12-10T03:39:42;1.63;;;0.80;;
23628;SDS011;11991;57.150;-2.134;2022-12-10T03:42:09;3.43;;;0.70;;
23628;SDS011;11991;57.150;-2.134;2022-12-10T03:44:37;3.73;;;0.77;;
23628;SDS011;11991;57.150;-2.134;2022-12-10T03:47:07;1.17;;;0.70;;
23628;SDS011;11991;57.150;-2.134;2022-12-10T03:49:38;1.03;;;0.77;;
23628;SDS011;11991;57.150;-2.134;2022-12-10T03:52:05;1.63;;;0.80;;
23628;SDS011;11991;57.150;-2.134;2022-12-10T03:54:32;2.77;;;0.60;;
23628;SDS011;11991;57.150;-2.134;2022-12-10T03:56:59;1.93;;;0.77;;
23628;SDS011;11991;57.150;-2.134;2022-12-10T03:59:27;2.47;;;0.80;;
23628;SDS011;11991;57.150;-2.134;2022-12-10T04:01:56;1.37;;;0.80;;
23628;SDS011;11991;57.150;-2.134;2022-12-10T04:04:24;1.47;;;0.70;;
23628;SDS011;11991;57.150;-2.134;2022-12-10T04:06:51;0.77;;;0.73;;
23628;SDS011;11991;57.150;-2.134;2022-12-10T04:09:18;1.63;;;0.70;;
23628;SDS011;11991;57.150;-2.134;2022-12-10T04:11:46;1.73;;;0.70;;
23628;SDS011;11991;57.150;-2.134;2022-12-10T04:14:13;2.63;;;0.80;;
23628;SDS011;11991;57.150;-2.134;2022-12-10T04:16:59;1.67;;;0.77;;
23628;SDS011;11991;57.150;-2.134;2022-12-10T04:19:27;1.90;;;0.80;;
23628;SDS011;11991;57.150;-2.134;2022-12-10T04:21:54;1.40;;;0.50;;
23628;SDS011;11991;57.150;-2.134;2022-12-10T04:24:39;1.63;;;0.50;;
23628;SDS011;11991;57.150;-2.134;2022-12-10T04:27:30;1.07;;;0.70;;
23628;SDS011;11991;57.150;-2.134;2022-12-10T04:29:59;2.90;;;0.57;;
23628;SDS011;11991;57.150;-2.134;2022-12-10T04:32:27;1.73;;;0.60;;
23628;SDS011;11991;57.150;-2.134;2022-12-10T04:34:55;2.57;;;0.60;;
23628;SDS011;11991;57.150;-2.134;2022-12-10T04:37:22;0.93;;;0.60;;
23628;SDS011;11991;57.150;-2.134;2022-12-10T04:39:50;1.07;;;0.60;;
23628;SDS011;11991;57.150;-2.134;2022-12-10T04:42:18;3.73;;;0.70;;
23628;SDS011;11991;57.150;-2.134;2022-12-10T04:44:46;1.97;;;0.63;;
23628;SDS011;11991;57.150;-2.134;2022-12-10T04:47:13;0.93;;;0.60;;
23628;SDS011;11991;57.150;-2.134;2022-12-10T04:49:41;1.10;;;0.50;;
23628;SDS011;11991;57.150;-2.134;2022-12-10T04:52:10;0.87;;;0.50;;
23628;SDS011;11991;57.150;-2.134;2022-12-10T04:54:40;0.40;;;0.40;;
23628;SDS011;11991;57.150;-2.134;2022-12-10T04:57:08;0.90;;;0.60;;
23628;SDS011;11991;57.150;-2.134;2022-12-10T04:59:36;2.43;;;0.77;;
23628;SDS011;11991;57.150;-2.134;2022-12-10T05:02:03;1.20;;;0.60;;
23628;SDS011;11991;57.150;-2.134;2022-12-10T05:04:32;0.70;;;0.60;;
23628;SDS011;11991;57.150;-2.134;2022-12-10T05:06:59;1.03;;;0.60;;
23628;SDS011;11991;57.150;-2.134;2022-12-10T05:09:27;0.87;;;0.40;;
23628;SDS011;11991;57.150;-2.134;2022-12-10T05:11:54;0.40;;;0.40;;
23628;SDS011;11991;57.150;-2.134;2022-12-10T05:14:21;1.17;;;0.90;;
23628;SDS011;11991;57.150;-2.134;2022-12-10T05:16:49;0.40;;;0.40;;
23628;SDS011;11991;57.150;-2.134;2022-12-10T05:19:18;1.23;;;0.40;;
23628;SDS011;11991;57.150;-2.134;2022-12-10T05:21:46;0.57;;;0.50;;
23628;SDS011;11991;57.150;-2.134;2022-12-10T05:24:32;1.30;;;0.50;;
23628;SDS011;11991;57.150;-2.134;2022-12-10T05:27:00;0.57;;;0.57;;
23628;SDS011;11991;57.150;-2.134;2022-12-10T05:29:27;0.77;;;0.73;;
23628;SDS011;11991;57.150;-2.134;2022-12-10T05:31:54;0.60;;;0.30;;
23628;SDS011;11991;57.150;-2.134;2022-12-10T05:34:22;0.40;;;0.40;;
23628;SDS011;11991;57.150;-2.134;2022-12-10T05:36:52;0.93;;;0.57;;
23628;SDS011;11991;57.150;-2.134;2022-12-10T05:39:19;3.33;;;0.73;;
23628;SDS011;11991;57.150;-2.134;2022-12-10T05:41:47;1.90;;;0.60;;
23628;SDS011;11991;57.150;-2.134;2022-12-10T05:44:14;0.83;;;0.30;;
23628;SDS011;11991;57.150;-2.134;2022-12-10T05:46:41;0.30;;;0.30;;
23628;SDS011;11991;57.150;-2.134;2022-12-10T05:49:08;0.40;;;0.40;;
23628;SDS011;11991;57.150;-2.134;2022-12-10T05:51:37;0.83;;;0.40;;
23628;SDS011;11991;57.150;-2.134;2022-12-10T05:54:05;0.40;;;0.40;;
23628;SDS011;11991;57.150;-2.134;2022-12-10T05:56:34;0.73;;;0.40;;
23628;SDS011;11991;57.150;-2.134;2022-12-10T05:59:03;1.07;;;0.50;;
23628;SDS011;11991;57.150;-2.134;2022-12-10T06:01:34;0.77;;;0.30;;
23628;SDS011;11991;57.150;-2.134;2022-12-10T06:04:03;1.77;;;0.40;;
23628;SDS011;11991;57.150;-2.134;2022-12-10T06:06:33;0.80;;;0.47;;
23628;SDS011;11991;57.150;-2.134;2022-12-10T06:09:02;2.53;;;0.60;;
23628;SDS011;11991;57.150;-2.134;2022-12-10T06:11:30;0.97;;;0.43;;
23628;SDS011;11991;57.150;-2.134;2022-12-10T06:13:58;1.63;;;0.60;;
23628;SDS011;11991;57.150;-2.134;2022-12-10T06:16:26;1.07;;;0.53;;
23628;SDS011;11991;57.150;-2.134;2022-12-10T06:18:54;3.30;;;0.93;;
23628;SDS011;11991;57.150;-2.134;2022-12-10T06:21:22;2.03;;;0.60;;
23628;SDS011;11991;57.150;-2.134;2022-12-10T06:23:50;0.67;;;0.60;;
23628;SDS011;11991;57.150;-2.134;2022-12-10T06:26:24;1.70;;;0.40;;
23628;SDS011;11991;57.150;-2.134;2022-12-10T06:28:53;1.30;;;0.43;;
23628;SDS011;11991;57.150;-2.134;2022-12-10T06:31:20;1.03;;;0.50;;
23628;SDS011;11991;57.150;-2.134;2022-12-10T06:33:48;0.50;;;0.50;;
23628;SDS011;11991;57.150;-2.134;2022-12-10T06:36:18;0.80;;;0.40;;
23628;SDS011;11991;57.150;-2.134;2022-12-10T06:38:45;0.40;;;0.40;;
23628;SDS011;11991;57.150;-2.134;2022-12-10T06:41:14;1.00;;;0.40;;
23628;SDS011;11991;57.150;-2.134;2022-12-10T06:43:44;0.70;;;0.40;;
23628;SDS011;11991;57.150;-2.134;2022-12-10T06:46:12;0.93;;;0.50;;
23628;SDS011;11991;57.150;-2.134;2022-12-10T06:48:41;1.03;;;0.60;;
23628;SDS011;11991;57.150;-2.134;2022-12-10T06:51:10;0.60;;;0.60;;
23628;SDS011;11991;57.150;-2.134;2022-12-10T06:53:39;1.43;;;0.60;;
23628;SDS011;11991;57.150;-2.134;2022-12-10T06:56:07;0.63;;;0.40;;
23628;SDS011;11991;57.150;-2.134;2022-12-10T06:58:37;0.40;;;0.40;;
23628;SDS011;11991;57.150;-2.134;2022-12-10T07:01:11;1.10;;;0.60;;
23628;SDS011;11991;57.150;-2.134;2022-12-10T07:03:40;1.23;;;0.47;;
23628;SDS011;11991;57.150;-2.134;2022-12-10T07:06:09;0.73;;;0.43;;
23628;SDS011;11991;57.150;-2.134;2022-12-10T07:08:37;0.40;;;0.40;;
23628;SDS011;11991;57.150;-2.134;2022-12-10T07:11:12;0.43;;;0.40;;
23628;SDS011;11991;57.150;-2.134;2022-12-10T07:13:40;1.33;;;0.40;;
23628;SDS011;11991;57.150;-2.134;2022-12-10T07:16:18;1.43;;;0.43;;
23628;SDS011;11991;57.150;-2.134;2022-12-10T07:18:49;0.63;;;0.50;;
23628;SDS011;11991;57.150;-2.134;2022-12-10T07:21:25;1.23;;;0.70;;
23628;SDS011;11991;57.150;-2.134;2022-12-10T07:23:59;2.00;;;0.67;;
23628;SDS011;11991;57.150;-2.134;2022-12-10T07:26:33;0.50;;;0.50;;
23628;SDS011;11991;57.150;-2.134;2022-12-10T07:29:03;0.83;;;0.53;;
23628;SDS011;11991;57.150;-2.134;2022-12-10T07:31:32;2.63;;;0.60;;
23628;SDS011;11991;57.150;-2.134;2022-12-10T07:34:00;0.50;;;0.50;;
23628;SDS011;11991;57.150;-2.134;2022-12-10T07:36:27;1.00;;;0.30;;
23628;SDS011;11991;57.150;-2.134;2022-12-10T07:38:55;1.33;;;0.83;;
23628;SDS011;11991;57.150;-2.134;2022-12-10T07:41:22;0.73;;;0.53;;
23628;SDS011;11991;57.150;-2.134;2022-12-10T07:43:50;0.87;;;0.50;;
23628;SDS011;11991;57.150;-2.134;2022-12-10T07:46:22;0.63;;;0.50;;
23628;SDS011;11991;57.150;-2.134;2022-12-10T07:48:52;2.07;;;0.57;;
23628;SDS011;11991;57.150;-2.134;2022-12-10T07:51:21;0.57;;;0.40;;
23628;SDS011;11991;57.150;-2.134;2022-12-10T07:53:52;2.40;;;0.97;;
23628;SDS011;11991;57.150;-2.134;2022-12-10T07:56:21;1.17;;;0.60;;
23628;SDS011;11991;57.150;-2.134;2022-12-10T07:58:50;0.60;;;0.50;;
23628;SDS011;11991;57.150;-2.134;2022-12-10T08:01:20;1.13;;;0.57;;
23628;SDS011;11991;57.150;-2.134;2022-12-10T08:03:49;3.00;;;1.27;;
23628;SDS011;11991;57.150;-2.134;2022-12-10T08:06:18;0.30;;;0.30;;
23628;SDS011;11991;57.150;-2.134;2022-12-10T08:08:46;0.40;;;0.40;;
23628;SDS011;11991;57.150;-2.134;2022-12-10T08:11:14;0.70;;;0.40;;
23628;SDS011;11991;57.150;-2.134;2022-12-10T08:13:43;0.40;;;0.40;;
23628;SDS011;11991;57.150;-2.134;2022-12-10T08:16:12;0.50;;;0.47;;
23628;SDS011;11991;57.150;-2.134;2022-12-10T08:18:45;1.37;;;0.50;;
23628;SDS011;11991;57.150;-2.134;2022-12-10T08:21:13;0.77;;;0.60;;
23628;SDS011;11991;57.150;-2.134;2022-12-10T08:23:46;1.80;;;0.50;;
23628;SDS011;11991;57.150;-2.134;2022-12-10T08:26:15;1.80;;;0.60;;
23628;SDS011;11991;57.150;-2.134;2022-12-10T08:28:45;1.53;;;0.63;;
23628;SDS011;11991;57.150;-2.134;2022-12-10T08:31:14;5.17;;;1.73;;
23628;SDS011;11991;57.150;-2.134;2022-12-10T08:33:43;1.60;;;0.70;;
23628;SDS011;11991;57.150;-2.134;2022-12-10T08:36:11;1.07;;;0.57;;
23628;SDS011;11991;57.150;-2.134;2022-12-10T08:38:40;1.13;;;0.83;;
23628;SDS011;11991;57.150;-2.134;2022-12-10T08:41:09;0.97;;;0.60;;
23628;SDS011;11991;57.150;-2.134;2022-12-10T08:43:37;0.50;;;0.40;;
23628;SDS011;11991;57.150;-2.134;2022-12-10T08:46:05;2.40;;;0.40;;
23628;SDS011;11991;57.150;-2.134;2022-12-10T08:48:33;0.57;;;0.50;;
23628;SDS011;11991;57.150;-2.134;2022-12-10T08:51:01;2.73;;;0.40;;
23628;SDS011;11991;57.150;-2.134;2022-12-10T08:53:30;1.30;;;0.47;;
23628;SDS011;11991;57.150;-2.134;2022-12-10T08:55:58;2.13;;;0.40;;
23628;SDS011;11991;57.150;-2.134;2022-12-10T08:58:25;1.00;;;0.40;;
23628;SDS011;11991;57.150;-2.134;2022-12-10T09:00:53;0.83;;;0.60;;
23628;SDS011;11991;57.150;-2.134;2022-12-10T09:03:20;0.53;;;0.40;;
23628;SDS011;11991;57.150;-2.134;2022-12-10T09:05:47;0.43;;;0.40;;
23628;SDS011;11991;57.150;-2.134;2022-12-10T09:08:14;1.07;;;0.50;;
23628;SDS011;11991;57.150;-2.134;2022-12-10T09:10:42;0.30;;;0.30;;
23628;SDS011;11991;57.150;-2.134;2022-12-10T09:13:09;0.83;;;0.40;;
23628;SDS011;11991;57.150;-2.134;2022-12-10T09:15:37;0.87;;;0.53;;
23628;SDS011;11991;57.150;-2.134;2022-12-10T09:18:04;1.23;;;1.13;;
23628;SDS011;11991;57.150;-2.134;2022-12-10T09:20:31;0.70;;;0.53;;
23628;SDS011;11991;57.150;-2.134;2022-12-10T09:22:59;2.60;;;1.10;;
23628;SDS011;11991;57.150;-2.134;2022-12-10T09:25:26;0.70;;;0.60;;
23628;SDS011;11991;57.150;-2.134;2022-12-10T09:27:53;1.53;;;0.80;;
23628;SDS011;11991;57.150;-2.134;2022-12-10T09:30:21;1.47;;;0.67;;
23628;SDS011;11991;57.150;-2.134;2022-12-10T09:32:48;0.63;;;0.50;;
23628;SDS011;11991;57.150;-2.134;2022-12-10T09:35:15;0.60;;;0.50;;
23628;SDS011;11991;57.150;-2.134;2022-12-10T09:37:42;0.40;;;0.40;;
23628;SDS011;11991;57.150;-2.134;2022-12-10T09:40:16;4.50;;;2.97;;
23628;SDS011;11991;57.150;-2.134;2022-12-10T09:53:50;6.13;;;2.63;;
23628;SDS011;11991;57.150;-2.134;2022-12-10T09:56:43;2.70;;;1.40;;
23628;SDS011;11991;57.150;-2.134;2022-12-10T09:59:30;7.80;;;1.57;;
23628;SDS011;11991;57.150;-2.134;2022-12-10T10:04:49;1.63;;;1.00;;
23628;SDS011;11991;57.150;-2.134;2022-12-10T10:07:25;2.47;;;1.27;;
23628;SDS011;11991;57.150;-2.134;2022-12-10T10:09:59;3.63;;;1.43;;
23628;SDS011;11991;57.150;-2.134;2022-12-10T10:12:30;2.70;;;1.10;;
23628;SDS011;11991;57.150;-2.134;2022-12-10T10:15:09;1.90;;;0.80;;
23628;SDS011;11991;57.150;-2.134;2022-12-10T10:17:41;3.33;;;1.00;;
23628;SDS011;11991;57.150;-2.134;2022-12-10T10:20:12;1.07;;;0.60;;
23628;SDS011;11991;57.150;-2.134;2022-12-10T10:22:42;2.20;;;0.60;;
23628;SDS011;11991;57.150;-2.134;2022-12-10T10:25:13;2.13;;;0.70;;
23628;SDS011;11991;57.150;-2.134;2022-12-10T10:27:42;2.10;;;0.90;;
23628;SDS011;11991;57.150;-2.134;2022-12-10T10:30:13;0.73;;;0.60;;
23628;SDS011;11991;57.150;-2.134;2022-12-10T10:32:44;0.63;;;0.50;;
23628;SDS011;11991;57.150;-2.134;2022-12-10T10:35:22;0.50;;;0.50;;
23628;SDS011;11991;57.150;-2.134;2022-12-10T10:37:59;1.30;;;0.47;;
23628;SDS011;11991;57.150;-2.134;2022-12-10T10:40:30;0.93;;;0.47;;
23628;SDS011;11991;57.150;-2.134;2022-12-10T10:43:05;0.70;;;0.50;;
23628;SDS011;11991;57.150;-2.134;2022-12-10T10:45:40;1.80;;;0.50;;
23628;SDS011;11991;57.150;-2.134;2022-12-10T10:48:28;0.40;;;0.40;;
23628;SDS011;11991;57.150;-2.134;2022-12-10T10:58:49;0.70;;;0.50;;
23628;SDS011;11991;57.150;-2.134;2022-12-10T11:01:26;0.80;;;0.80;;
23628;SDS011;11991;57.150;-2.134;2022-12-10T11:04:14;1.50;;;0.80;;
23628;SDS011;11991;57.150;-2.134;2022-12-10T11:06:43;0.80;;;0.80;;
23628;SDS011;11991;57.150;-2.134;2022-12-10T11:09:17;0.63;;;0.60;;
23628;SDS011;11991;57.150;-2.134;2022-12-10T11:11:52;1.30;;;0.67;;
23628;SDS011;11991;57.150;-2.134;2022-12-10T11:14:33;1.93;;;0.97;;
23628;SDS011;11991;57.150;-2.134;2022-12-10T11:22:24;1.23;;;1.00;;
23628;SDS011;11991;57.150;-2.134;2022-12-10T11:24:56;1.03;;;0.70;;
23628;SDS011;11991;57.150;-2.134;2022-12-10T11:30:20;1.20;;;0.70;;
23628;SDS011;11991;57.150;-2.134;2022-12-10T11:39:36;1.30;;;0.60;;
23628;SDS011;11991;57.150;-2.134;2022-12-10T11:42:00;0.60;;;0.60;;
23628;SDS011;11991;57.150;-2.134;2022-12-10T11:44:57;1.37;;;0.70;;
23628;SDS011;11991;57.150;-2.134;2022-12-10T11:50:52;1.83;;;0.70;;
23628;SDS011;11991;57.150;-2.134;2022-12-10T11:53:45;1.90;;;0.80;;
23628;SDS011;11991;57.150;-2.134;2022-12-10T11:56:44;1.53;;;1.00;;
23628;SDS011;11991;57.150;-2.134;2022-12-10T12:07:56;3.03;;;1.23;;
23628;SDS011;11991;57.150;-2.134;2022-12-10T12:16:15;4.37;;;1.30;;
23628;SDS011;11991;57.150;-2.134;2022-12-10T12:18:51;2.97;;;0.90;;
23628;SDS011;11991;57.150;-2.134;2022-12-10T12:21:56;2.20;;;1.17;;
23628;SDS011;11991;57.150;-2.134;2022-12-10T12:27:25;2.77;;;0.90;;
23628;SDS011;11991;57.150;-2.134;2022-12-10T12:32:55;3.00;;;1.00;;
23628;SDS011;11991;57.150;-2.134;2022-12-10T12:40:53;1.40;;;0.73;;
23628;SDS011;11991;57.150;-2.134;2022-12-10T12:43:31;2.23;;;0.80;;
23628;SDS011;11991;57.150;-2.134;2022-12-10T12:46:10;3.47;;;0.90;;
23628;SDS011;11991;57.150;-2.134;2022-12-10T12:51:29;2.23;;;1.30;;
23628;SDS011;11991;57.150;-2.134;2022-12-10T12:54:03;2.50;;;0.80;;
23628;SDS011;11991;57.150;-2.134;2022-12-10T13:05:14;1.40;;;1.00;;
23628;SDS011;11991;57.150;-2.134;2022-12-10T13:10:44;1.47;;;1.00;;
23628;SDS011;11991;57.150;-2.134;2022-12-10T13:24:20;5.33;;;2.53;;
23628;SDS011;11991;57.150;-2.134;2022-12-10T13:27:02;3.43;;;1.90;;
23628;SDS011;11991;57.150;-2.134;2022-12-10T13:29:42;2.63;;;1.30;;
23628;SDS011;11991;57.150;-2.134;2022-12-10T13:43:37;1.70;;;1.20;;
23628;SDS011;11991;57.150;-2.134;2022-12-10T13:49:16;1.77;;;1.40;;
23628;SDS011;11991;57.150;-2.134;2022-12-10T13:51:57;1.63;;;1.43;;
23628;SDS011;11991;57.150;-2.134;2022-12-10T14:00:14;1.60;;;1.17;;
23628;SDS011;11991;57.150;-2.134;2022-12-10T14:08:21;1.10;;;1.00;;
23628;SDS011;11991;57.150;-2.134;2022-12-10T14:10:54;1.57;;;1.20;;
23628;SDS011;11991;57.150;-2.134;2022-12-10T14:13:25;1.50;;;1.40;;
23628;SDS011;11991;57.150;-2.134;2022-12-10T14:15:59;2.30;;;1.70;;
23628;SDS011;11991;57.150;-2.134;2022-12-10T14:18:29;2.30;;;1.70;;
23628;SDS011;11991;57.150;-2.134;2022-12-10T14:20:56;2.20;;;1.57;;
23628;SDS011;11991;57.150;-2.134;2022-12-10T14:23:29;2.23;;;1.17;;
23628;SDS011;11991;57.150;-2.134;2022-12-10T14:26:14;2.80;;;1.67;;
23628;SDS011;11991;57.150;-2.134;2022-12-10T14:31:17;2.80;;;1.47;;
23628;SDS011;11991;57.150;-2.134;2022-12-10T14:33:49;1.83;;;1.07;;
23628;SDS011;11991;57.150;-2.134;2022-12-10T14:36:51;1.13;;;0.93;;
23628;SDS011;11991;57.150;-2.134;2022-12-10T14:39:24;1.40;;;1.30;;
23628;SDS011;11991;57.150;-2.134;2022-12-10T14:42:04;1.97;;;1.27;;
23628;SDS011;11991;57.150;-2.134;2022-12-10T14:44:39;1.40;;;0.93;;
23628;SDS011;11991;57.150;-2.134;2022-12-10T14:47:19;1.00;;;0.90;;
23628;SDS011;11991;57.150;-2.134;2022-12-10T14:50:24;1.20;;;1.07;;
23628;SDS011;11991;57.150;-2.134;2022-12-10T14:53:25;1.10;;;0.70;;
23628;SDS011;11991;57.150;-2.134;2022-12-10T14:56:30;1.83;;;1.10;;
23628;SDS011;11991;57.150;-2.134;2022-12-10T15:02:15;2.75;;;2.00;;
23628;SDS011;11991;57.150;-2.134;2022-12-10T15:05:00;5.33;;;2.40;;
23628;SDS011;11991;57.150;-2.134;2022-12-10T15:07:32;10.13;;;3.70;;
23628;SDS011;11991;57.150;-2.134;2022-12-10T15:10:07;6.20;;;3.10;;
23628;SDS011;11991;57.150;-2.134;2022-12-10T15:12:44;4.13;;;2.53;;
23628;SDS011;11991;57.150;-2.134;2022-12-10T15:15:33;2.40;;;1.80;;
23628;SDS011;11991;57.150;-2.134;2022-12-10T15:20:31;3.20;;;1.50;;
23628;SDS011;11991;57.150;-2.134;2022-12-10T15:23:11;3.80;;;1.83;;
23628;SDS011;11991;57.150;-2.134;2022-12-10T15:28:44;1.93;;;1.40;;
23628;SDS011;11991;57.150;-2.134;2022-12-10T15:33:49;1.27;;;1.03;;
23628;SDS011;11991;57.150;-2.134;2022-12-10T15:49:25;6.50;;;2.90;;
23628;SDS011;11991;57.150;-2.134;2022-12-10T15:51:53;3.93;;;2.80;;
23628;SDS011;11991;57.150;-2.134;2022-12-10T15:54:34;4.47;;;2.90;;
23628;SDS011;11991;57.150;-2.134;2022-12-10T15:57:13;2.97;;;1.80;;
23628;SDS011;11991;57.150;-2.134;2022-12-10T15:59:46;3.07;;;2.60;;
23628;SDS011;11991;57.150;-2.134;2022-12-10T16:04:45;5.80;;;3.50;;
23628;SDS011;11991;57.150;-2.134;2022-12-10T16:07:12;6.73;;;4.07;;
23628;SDS011;11991;57.150;-2.134;2022-12-10T16:09:42;2.50;;;1.50;;
23628;SDS011;11991;57.150;-2.134;2022-12-10T16:12:10;1.57;;;1.47;;
23628;SDS011;11991;57.150;-2.134;2022-12-10T16:14:45;6.30;;;2.77;;
23628;SDS011;11991;57.150;-2.134;2022-12-10T16:17:15;1.90;;;1.80;;
23628;SDS011;11991;57.150;-2.134;2022-12-10T16:19:43;1.93;;;1.47;;
23628;SDS011;11991;57.150;-2.134;2022-12-10T16:22:11;2.97;;;2.13;;
23628;SDS011;11991;57.150;-2.134;2022-12-10T16:24:38;3.07;;;2.73;;
23628;SDS011;11991;57.150;-2.134;2022-12-10T16:27:11;5.77;;;3.93;;
23628;SDS011;11991;57.150;-2.134;2022-12-10T16:29:41;5.90;;;3.10;;
23628;SDS011;11991;57.150;-2.134;2022-12-10T16:32:09;3.27;;;1.77;;
23628;SDS011;11991;57.150;-2.134;2022-12-10T16:34:37;3.93;;;1.90;;
23628;SDS011;11991;57.150;-2.134;2022-12-10T16:37:06;1.43;;;1.00;;
23628;SDS011;11991;57.150;-2.134;2022-12-10T16:39:33;1.63;;;1.10;;
23628;SDS011;11991;57.150;-2.134;2022-12-10T16:42:00;2.70;;;1.20;;
23628;SDS011;11991;57.150;-2.134;2022-12-10T16:44:28;5.43;;;3.57;;
23628;SDS011;11991;57.150;-2.134;2022-12-10T16:46:55;8.33;;;5.20;;
23628;SDS011;11991;57.150;-2.134;2022-12-10T16:49:24;3.03;;;2.10;;
23628;SDS011;11991;57.150;-2.134;2022-12-10T16:51:51;2.90;;;1.80;;
23628;SDS011;11991;57.150;-2.134;2022-12-10T16:54:19;11.03;;;7.00;;
23628;SDS011;11991;57.150;-2.134;2022-12-10T16:56:46;2.80;;;2.10;;
23628;SDS011;11991;57.150;-2.134;2022-12-10T16:59:14;2.40;;;1.60;;
23628;SDS011;11991;57.150;-2.134;2022-12-10T17:01:41;2.43;;;1.87;;
23628;SDS011;11991;57.150;-2.134;2022-12-10T17:04:08;3.30;;;2.47;;
23628;SDS011;11991;57.150;-2.134;2022-12-10T17:06:36;2.53;;;1.50;;
23628;SDS011;11991;57.150;-2.134;2022-12-10T17:09:03;1.60;;;1.50;;
23628;SDS011;11991;57.150;-2.134;2022-12-10T17:11:35;2.93;;;1.80;;
23628;SDS011;11991;57.150;-2.134;2022-12-10T17:14:23;3.27;;;2.00;;
23628;SDS011;11991;57.150;-2.134;2022-12-10T17:16:56;4.40;;;1.87;;
23628;SDS011;11991;57.150;-2.134;2022-12-10T17:19:44;3.37;;;1.50;;
23628;SDS011;11991;57.150;-2.134;2022-12-10T17:22:11;2.93;;;2.10;;
23628;SDS011;11991;57.150;-2.134;2022-12-10T17:24:39;4.50;;;2.50;;
23628;SDS011;11991;57.150;-2.134;2022-12-10T17:27:10;4.13;;;2.00;;
23628;SDS011;11991;57.150;-2.134;2022-12-10T17:29:42;5.07;;;2.40;;
23628;SDS011;11991;57.150;-2.134;2022-12-10T17:32:20;2.27;;;1.57;;
23628;SDS011;11991;57.150;-2.134;2022-12-10T17:34:48;2.03;;;1.40;;
23628;SDS011;11991;57.150;-2.134;2022-12-10T17:37:16;5.40;;;2.67;;
23628;SDS011;11991;57.150;-2.134;2022-12-10T17:39:45;5.60;;;2.10;;
23628;SDS011;11991;57.150;-2.134;2022-12-10T17:42:13;10.90;;;4.90;;
23628;SDS011;11991;57.150;-2.134;2022-12-10T17:44:40;5.30;;;3.40;;
23628;SDS011;11991;57.150;-2.134;2022-12-10T17:47:21;5.50;;;3.10;;
23628;SDS011;11991;57.150;-2.134;2022-12-10T17:49:51;5.33;;;3.10;;